sensor_id;sensor_type;location;lat;lon;timestamp;P1;durP1;ratioP1;P2;durP2;ratioP2
4724;SDS011;2376;53.544;10.226;2022-12-15T00:00:12;16.37;;;11.53;;
4724;SDS011;2376;53.544;10.226;2022-12-15T00:03:02;19.23;;;12.20;;
4724;SDS011;2376;53.544;10.226;2022-12-15T00:05:48;18.23;;;12.53;;
4724;SDS011;2376;53.544;10.226;2022-12-15T00:08:33;18.70;;;12.07;;
4724;SDS011;2376;53.544;10.226;2022-12-15T00:11:18;18.17;;;11.50;;
4724;SDS011;2376;53.544;10.226;2022-12-15T00:14:03;16.67;;;11.23;;
4724;SDS011;2376;53.544;10.226;2022-12-15T00:16:47;17.60;;;11.50;;
4724;SDS011;2376;53.544;10.226;2022-12-15T00:19:32;19.60;;;11.17;;
4724;SDS011;2376;53.544;10.226;2022-12-15T00:22:18;15.73;;;11.00;;
4724;SDS011;2376;53.544;10.226;2022-12-15T00:25:03;15.80;;;10.23;;
4724;SDS011;2376;53.544;10.226;2022-12-15T00:27:48;14.00;;;10.57;;
4724;SDS011;2376;53.544;10.226;2022-12-15T00:30:32;15.90;;;10.87;;
4724;SDS011;2376;53.544;10.226;2022-12-15T00:33:17;14.17;;;9.77;;
4724;SDS011;2376;53.544;10.226;2022-12-15T00:36:02;19.00;;;11.80;;
4724;SDS011;2376;53.544;10.226;2022-12-15T00:38:48;15.00;;;12.07;;
4724;SDS011;2376;53.544;10.226;2022-12-15T00:41:15;16.63;;;11.53;;
4724;SDS011;2376;53.544;10.226;2022-12-15T00:43:43;14.77;;;11.57;;
4724;SDS011;2376;53.544;10.226;2022-12-15T00:46:10;15.80;;;12.40;;
4724;SDS011;2376;53.544;10.226;2022-12-15T00:48:55;17.80;;;11.43;;
4724;SDS011;2376;53.544;10.226;2022-12-15T00:51:22;15.53;;;11.40;;
4724;SDS011;2376;53.544;10.226;2022-12-15T00:54:08;13.80;;;11.37;;
4724;SDS011;2376;53.544;10.226;2022-12-15T00:56:53;14.30;;;10.67;;
4724;SDS011;2376;53.544;10.226;2022-12-15T00:59:37;18.07;;;11.23;;
4724;SDS011;2376;53.544;10.226;2022-12-15T01:02:22;14.73;;;10.37;;
4724;SDS011;2376;53.544;10.226;2022-12-15T01:05:07;12.70;;;9.20;;
4724;SDS011;2376;53.544;10.226;2022-12-15T01:07:52;20.17;;;11.80;;
4724;SDS011;2376;53.544;10.226;2022-12-15T01:10:38;16.73;;;11.50;;
4724;SDS011;2376;53.544;10.226;2022-12-15T01:13:23;16.23;;;10.60;;
4724;SDS011;2376;53.544;10.226;2022-12-15T01:16:08;17.03;;;10.60;;
4724;SDS011;2376;53.544;10.226;2022-12-15T01:18:53;11.30;;;10.10;;
4724;SDS011;2376;53.544;10.226;2022-12-15T01:21:38;13.80;;;10.87;;
4724;SDS011;2376;53.544;10.226;2022-12-15T01:24:05;14.40;;;10.10;;
4724;SDS011;2376;53.544;10.226;2022-12-15T01:26:34;15.43;;;10.90;;
4724;SDS011;2376;53.544;10.226;2022-12-15T01:29:01;17.23;;;10.90;;
4724;SDS011;2376;53.544;10.226;2022-12-15T01:31:28;13.47;;;10.23;;
4724;SDS011;2376;53.544;10.226;2022-12-15T01:33:55;13.87;;;11.37;;
4724;SDS011;2376;53.544;10.226;2022-12-15T01:36:23;15.23;;;11.67;;
4724;SDS011;2376;53.544;10.226;2022-12-15T01:38:50;14.50;;;12.07;;
4724;SDS011;2376;53.544;10.226;2022-12-15T01:41:17;17.23;;;10.97;;
4724;SDS011;2376;53.544;10.226;2022-12-15T01:43:44;13.70;;;10.50;;
4724;SDS011;2376;53.544;10.226;2022-12-15T01:46:12;13.80;;;11.00;;
4724;SDS011;2376;53.544;10.226;2022-12-15T01:48:41;17.23;;;10.37;;
4724;SDS011;2376;53.544;10.226;2022-12-15T01:51:16;13.00;;;9.30;;
4724;SDS011;2376;53.544;10.226;2022-12-15T01:53:46;13.57;;;10.17;;
4724;SDS011;2376;53.544;10.226;2022-12-15T01:56:13;13.13;;;10.90;;
4724;SDS011;2376;53.544;10.226;2022-12-15T01:58:41;17.23;;;10.20;;
4724;SDS011;2376;53.544;10.226;2022-12-15T02:01:10;13.20;;;9.90;;
4724;SDS011;2376;53.544;10.226;2022-12-15T02:03:38;16.60;;;9.93;;
4724;SDS011;2376;53.544;10.226;2022-12-15T02:06:05;11.17;;;9.97;;
4724;SDS011;2376;53.544;10.226;2022-12-15T02:08:34;11.27;;;9.00;;
4724;SDS011;2376;53.544;10.226;2022-12-15T02:11:15;15.60;;;9.63;;
4724;SDS011;2376;53.544;10.226;2022-12-15T02:13:46;10.77;;;9.53;;
4724;SDS011;2376;53.544;10.226;2022-12-15T02:16:17;12.50;;;9.40;;
4724;SDS011;2376;53.544;10.226;2022-12-15T02:18:50;12.37;;;9.87;;
4724;SDS011;2376;53.544;10.226;2022-12-15T02:21:19;13.20;;;10.67;;
4724;SDS011;2376;53.544;10.226;2022-12-15T02:32:15;19.17;;;9.60;;
4724;SDS011;2376;53.544;10.226;2022-12-15T02:34:43;13.57;;;9.43;;
4724;SDS011;2376;53.544;10.226;2022-12-15T02:37:13;14.40;;;9.70;;
4724;SDS011;2376;53.544;10.226;2022-12-15T02:39:41;14.67;;;9.23;;
4724;SDS011;2376;53.544;10.226;2022-12-15T02:42:08;17.60;;;10.00;;
4724;SDS011;2376;53.544;10.226;2022-12-15T02:44:37;12.07;;;10.10;;
4724;SDS011;2376;53.544;10.226;2022-12-15T02:47:11;10.97;;;9.83;;
4724;SDS011;2376;53.544;10.226;2022-12-15T02:49:47;13.43;;;10.17;;
4724;SDS011;2376;53.544;10.226;2022-12-15T02:52:21;12.70;;;8.33;;
4724;SDS011;2376;53.544;10.226;2022-12-15T02:54:56;16.87;;;10.27;;
4724;SDS011;2376;53.544;10.226;2022-12-15T02:57:31;11.40;;;9.60;;
4724;SDS011;2376;53.544;10.226;2022-12-15T03:00:04;9.87;;;8.87;;
4724;SDS011;2376;53.544;10.226;2022-12-15T03:02:33;11.90;;;9.90;;
4724;SDS011;2376;53.544;10.226;2022-12-15T03:05:03;12.60;;;9.47;;
4724;SDS011;2376;53.544;10.226;2022-12-15T03:07:30;12.30;;;10.37;;
4724;SDS011;2376;53.544;10.226;2022-12-15T03:09:59;14.00;;;9.43;;
4724;SDS011;2376;53.544;10.226;2022-12-15T03:12:26;14.40;;;10.03;;
4724;SDS011;2376;53.544;10.226;2022-12-15T03:14:53;15.17;;;9.80;;
4724;SDS011;2376;53.544;10.226;2022-12-15T03:17:22;13.00;;;9.83;;
4724;SDS011;2376;53.544;10.226;2022-12-15T03:19:49;11.10;;;8.50;;
4724;SDS011;2376;53.544;10.226;2022-12-15T03:22:17;12.87;;;9.13;;
4724;SDS011;2376;53.544;10.226;2022-12-15T03:24:44;10.27;;;9.13;;
4724;SDS011;2376;53.544;10.226;2022-12-15T03:27:12;11.63;;;9.20;;
4724;SDS011;2376;53.544;10.226;2022-12-15T03:29:39;11.90;;;9.20;;
4724;SDS011;2376;53.544;10.226;2022-12-15T03:32:06;11.60;;;8.50;;
4724;SDS011;2376;53.544;10.226;2022-12-15T03:34:34;12.40;;;9.87;;
4724;SDS011;2376;53.544;10.226;2022-12-15T03:37:01;13.33;;;9.27;;
4724;SDS011;2376;53.544;10.226;2022-12-15T03:39:30;12.40;;;9.63;;
4724;SDS011;2376;53.544;10.226;2022-12-15T03:41:57;13.87;;;10.07;;
4724;SDS011;2376;53.544;10.226;2022-12-15T03:44:24;10.50;;;8.10;;
4724;SDS011;2376;53.544;10.226;2022-12-15T03:46:51;10.50;;;8.97;;
4724;SDS011;2376;53.544;10.226;2022-12-15T03:49:18;13.53;;;9.10;;
4724;SDS011;2376;53.544;10.226;2022-12-15T03:51:45;10.77;;;8.97;;
4724;SDS011;2376;53.544;10.226;2022-12-15T03:54:12;13.47;;;8.80;;
4724;SDS011;2376;53.544;10.226;2022-12-15T03:56:41;11.27;;;8.93;;
4724;SDS011;2376;53.544;10.226;2022-12-15T03:59:08;11.70;;;8.60;;
4724;SDS011;2376;53.544;10.226;2022-12-15T04:01:35;14.13;;;10.63;;
4724;SDS011;2376;53.544;10.226;2022-12-15T04:04:03;12.27;;;9.23;;
4724;SDS011;2376;53.544;10.226;2022-12-15T04:06:30;9.67;;;8.23;;
4724;SDS011;2376;53.544;10.226;2022-12-15T04:08:57;14.33;;;9.57;;
4724;SDS011;2376;53.544;10.226;2022-12-15T04:11:24;11.97;;;9.93;;
4724;SDS011;2376;53.544;10.226;2022-12-15T04:13:53;10.40;;;8.40;;
4724;SDS011;2376;53.544;10.226;2022-12-15T04:16:20;8.80;;;7.90;;
4724;SDS011;2376;53.544;10.226;2022-12-15T04:18:47;9.53;;;8.27;;
4724;SDS011;2376;53.544;10.226;2022-12-15T04:21:35;14.60;;;8.90;;
4724;SDS011;2376;53.544;10.226;2022-12-15T04:24:01;9.70;;;7.77;;
4724;SDS011;2376;53.544;10.226;2022-12-15T04:26:45;10.10;;;8.20;;
4724;SDS011;2376;53.544;10.226;2022-12-15T04:29:31;11.67;;;9.47;;
4724;SDS011;2376;53.544;10.226;2022-12-15T04:32:16;11.10;;;8.53;;
4724;SDS011;2376;53.544;10.226;2022-12-15T04:35:01;12.40;;;9.23;;
4724;SDS011;2376;53.544;10.226;2022-12-15T04:37:45;10.93;;;8.73;;
4724;SDS011;2376;53.544;10.226;2022-12-15T04:40:30;9.70;;;8.17;;
4724;SDS011;2376;53.544;10.226;2022-12-15T04:43:15;13.10;;;10.60;;
4724;SDS011;2376;53.544;10.226;2022-12-15T04:46:01;12.63;;;9.47;;
4724;SDS011;2376;53.544;10.226;2022-12-15T04:48:45;11.83;;;9.00;;
4724;SDS011;2376;53.544;10.226;2022-12-15T04:51:32;11.57;;;8.87;;
4724;SDS011;2376;53.544;10.226;2022-12-15T04:54:17;11.30;;;8.60;;
4724;SDS011;2376;53.544;10.226;2022-12-15T04:57:01;11.13;;;8.57;;
4724;SDS011;2376;53.544;10.226;2022-12-15T04:59:46;9.00;;;8.10;;
4724;SDS011;2376;53.544;10.226;2022-12-15T05:02:32;11.07;;;7.50;;
4724;SDS011;2376;53.544;10.226;2022-12-15T05:05:17;12.60;;;8.47;;
4724;SDS011;2376;53.544;10.226;2022-12-15T05:08:01;12.53;;;8.40;;
4724;SDS011;2376;53.544;10.226;2022-12-15T05:10:46;10.73;;;8.80;;
4724;SDS011;2376;53.544;10.226;2022-12-15T05:13:31;13.17;;;8.33;;
4724;SDS011;2376;53.544;10.226;2022-12-15T05:16:15;11.50;;;8.43;;
4724;SDS011;2376;53.544;10.226;2022-12-15T05:19:01;16.00;;;10.07;;
4724;SDS011;2376;53.544;10.226;2022-12-15T05:21:46;8.77;;;7.87;;
4724;SDS011;2376;53.544;10.226;2022-12-15T05:24:31;9.63;;;8.20;;
4724;SDS011;2376;53.544;10.226;2022-12-15T05:27:15;12.70;;;8.53;;
4724;SDS011;2376;53.544;10.226;2022-12-15T05:30:00;11.53;;;7.33;;
4724;SDS011;2376;53.544;10.226;2022-12-15T05:32:45;12.07;;;8.33;;
4724;SDS011;2376;53.544;10.226;2022-12-15T05:35:13;11.13;;;9.13;;
4724;SDS011;2376;53.544;10.226;2022-12-15T05:37:40;12.47;;;8.30;;
4724;SDS011;2376;53.544;10.226;2022-12-15T05:40:08;10.93;;;8.90;;
4724;SDS011;2376;53.544;10.226;2022-12-15T05:42:35;13.33;;;9.53;;
4724;SDS011;2376;53.544;10.226;2022-12-15T05:45:02;15.27;;;9.60;;
4724;SDS011;2376;53.544;10.226;2022-12-15T05:47:30;19.33;;;10.07;;
4724;SDS011;2376;53.544;10.226;2022-12-15T05:49:57;13.13;;;9.13;;
4724;SDS011;2376;53.544;10.226;2022-12-15T05:52:25;11.23;;;9.30;;
4724;SDS011;2376;53.544;10.226;2022-12-15T05:54:52;12.30;;;8.93;;
4724;SDS011;2376;53.544;10.226;2022-12-15T05:57:19;13.33;;;9.17;;
4724;SDS011;2376;53.544;10.226;2022-12-15T05:59:46;11.87;;;8.50;;
4724;SDS011;2376;53.544;10.226;2022-12-15T06:02:13;12.13;;;9.57;;
4724;SDS011;2376;53.544;10.226;2022-12-15T06:04:40;9.97;;;8.97;;
4724;SDS011;2376;53.544;10.226;2022-12-15T06:07:07;11.00;;;8.90;;
4724;SDS011;2376;53.544;10.226;2022-12-15T06:09:36;9.77;;;8.37;;
4724;SDS011;2376;53.544;10.226;2022-12-15T06:12:03;15.77;;;8.37;;
4724;SDS011;2376;53.544;10.226;2022-12-15T06:14:30;12.70;;;9.87;;
4724;SDS011;2376;53.544;10.226;2022-12-15T06:16:58;12.23;;;9.70;;
4724;SDS011;2376;53.544;10.226;2022-12-15T06:19:25;12.70;;;8.87;;
4724;SDS011;2376;53.544;10.226;2022-12-15T06:21:52;12.67;;;9.50;;
4724;SDS011;2376;53.544;10.226;2022-12-15T06:24:19;13.97;;;9.83;;
4724;SDS011;2376;53.544;10.226;2022-12-15T06:26:48;18.30;;;11.20;;
4724;SDS011;2376;53.544;10.226;2022-12-15T06:29:15;14.03;;;9.23;;
4724;SDS011;2376;53.544;10.226;2022-12-15T06:31:42;13.30;;;10.33;;
4724;SDS011;2376;53.544;10.226;2022-12-15T06:34:10;10.57;;;8.97;;
4724;SDS011;2376;53.544;10.226;2022-12-15T06:36:37;9.70;;;7.77;;
4724;SDS011;2376;53.544;10.226;2022-12-15T06:39:05;13.70;;;9.30;;
4724;SDS011;2376;53.544;10.226;2022-12-15T06:41:33;15.43;;;8.60;;
4724;SDS011;2376;53.544;10.226;2022-12-15T06:44:02;11.33;;;8.43;;
4724;SDS011;2376;53.544;10.226;2022-12-15T06:46:29;12.47;;;9.80;;
4724;SDS011;2376;53.544;10.226;2022-12-15T06:48:57;11.87;;;8.50;;
4724;SDS011;2376;53.544;10.226;2022-12-15T06:51:25;16.67;;;10.20;;
4724;SDS011;2376;53.544;10.226;2022-12-15T06:53:52;13.73;;;10.33;;
4724;SDS011;2376;53.544;10.226;2022-12-15T06:56:21;11.90;;;9.80;;
4724;SDS011;2376;53.544;10.226;2022-12-15T06:58:48;11.47;;;9.27;;
4724;SDS011;2376;53.544;10.226;2022-12-15T07:01:18;15.50;;;10.50;;
4724;SDS011;2376;53.544;10.226;2022-12-15T07:03:45;16.60;;;10.57;;
4724;SDS011;2376;53.544;10.226;2022-12-15T07:06:13;15.83;;;8.70;;
4724;SDS011;2376;53.544;10.226;2022-12-15T07:08:41;14.10;;;9.43;;
4724;SDS011;2376;53.544;10.226;2022-12-15T07:11:09;13.23;;;9.30;;
4724;SDS011;2376;53.544;10.226;2022-12-15T07:13:37;11.93;;;9.80;;
4724;SDS011;2376;53.544;10.226;2022-12-15T07:16:05;10.03;;;9.07;;
4724;SDS011;2376;53.544;10.226;2022-12-15T07:18:33;12.53;;;9.13;;
4724;SDS011;2376;53.544;10.226;2022-12-15T07:21:00;13.43;;;9.57;;
4724;SDS011;2376;53.544;10.226;2022-12-15T07:23:28;14.13;;;9.33;;
4724;SDS011;2376;53.544;10.226;2022-12-15T07:25:55;13.20;;;10.40;;
4724;SDS011;2376;53.544;10.226;2022-12-15T07:28:22;9.80;;;8.80;;
4724;SDS011;2376;53.544;10.226;2022-12-15T07:30:49;16.17;;;10.97;;
4724;SDS011;2376;53.544;10.226;2022-12-15T07:33:17;9.73;;;8.80;;
4724;SDS011;2376;53.544;10.226;2022-12-15T07:35:52;12.87;;;10.20;;
4724;SDS011;2376;53.544;10.226;2022-12-15T07:38:19;11.50;;;9.50;;
4724;SDS011;2376;53.544;10.226;2022-12-15T07:40:46;12.60;;;10.00;;
4724;SDS011;2376;53.544;10.226;2022-12-15T07:43:13;11.17;;;9.60;;
4724;SDS011;2376;53.544;10.226;2022-12-15T07:45:42;12.30;;;9.27;;
4724;SDS011;2376;53.544;10.226;2022-12-15T07:48:09;12.97;;;9.63;;
4724;SDS011;2376;53.544;10.226;2022-12-15T07:50:36;10.30;;;8.87;;
4724;SDS011;2376;53.544;10.226;2022-12-15T07:53:05;11.03;;;9.47;;
4724;SDS011;2376;53.544;10.226;2022-12-15T07:55:32;9.97;;;8.50;;
4724;SDS011;2376;53.544;10.226;2022-12-15T07:57:59;11.60;;;9.53;;
4724;SDS011;2376;53.544;10.226;2022-12-15T08:00:27;10.53;;;8.90;;
4724;SDS011;2376;53.544;10.226;2022-12-15T08:02:54;10.00;;;9.00;;
4724;SDS011;2376;53.544;10.226;2022-12-15T08:05:21;12.30;;;10.60;;
4724;SDS011;2376;53.544;10.226;2022-12-15T08:07:49;13.83;;;9.03;;
4724;SDS011;2376;53.544;10.226;2022-12-15T08:10:17;18.37;;;9.73;;
4724;SDS011;2376;53.544;10.226;2022-12-15T08:12:45;16.20;;;9.77;;
4724;SDS011;2376;53.544;10.226;2022-12-15T08:15:12;14.40;;;10.73;;
4724;SDS011;2376;53.544;10.226;2022-12-15T08:17:39;12.10;;;10.50;;
4724;SDS011;2376;53.544;10.226;2022-12-15T08:20:07;12.07;;;9.73;;
4724;SDS011;2376;53.544;10.226;2022-12-15T08:22:34;10.83;;;9.23;;
4724;SDS011;2376;53.544;10.226;2022-12-15T08:25:02;13.53;;;10.10;;
4724;SDS011;2376;53.544;10.226;2022-12-15T08:27:30;12.23;;;9.10;;
4724;SDS011;2376;53.544;10.226;2022-12-15T08:29:57;11.70;;;9.70;;
4724;SDS011;2376;53.544;10.226;2022-12-15T08:32:24;12.00;;;10.60;;
4724;SDS011;2376;53.544;10.226;2022-12-15T08:34:51;13.63;;;9.77;;
4724;SDS011;2376;53.544;10.226;2022-12-15T08:37:18;15.40;;;10.63;;
4724;SDS011;2376;53.544;10.226;2022-12-15T08:39:46;10.70;;;8.80;;
4724;SDS011;2376;53.544;10.226;2022-12-15T08:42:13;12.83;;;9.20;;
4724;SDS011;2376;53.544;10.226;2022-12-15T08:44:41;25.00;;;10.37;;
4724;SDS011;2376;53.544;10.226;2022-12-15T08:47:08;11.60;;;10.30;;
4724;SDS011;2376;53.544;10.226;2022-12-15T08:49:35;15.77;;;9.90;;
4724;SDS011;2376;53.544;10.226;2022-12-15T08:52:02;13.37;;;11.17;;
4724;SDS011;2376;53.544;10.226;2022-12-15T08:54:29;14.30;;;11.30;;
4724;SDS011;2376;53.544;10.226;2022-12-15T08:56:57;11.87;;;9.83;;
4724;SDS011;2376;53.544;10.226;2022-12-15T08:59:24;12.57;;;9.97;;
4724;SDS011;2376;53.544;10.226;2022-12-15T09:01:53;18.63;;;10.87;;
4724;SDS011;2376;53.544;10.226;2022-12-15T09:04:20;10.93;;;9.60;;
4724;SDS011;2376;53.544;10.226;2022-12-15T09:06:47;13.03;;;9.10;;
4724;SDS011;2376;53.544;10.226;2022-12-15T09:09:15;14.37;;;9.13;;
4724;SDS011;2376;53.544;10.226;2022-12-15T09:11:42;13.37;;;11.17;;
4724;SDS011;2376;53.544;10.226;2022-12-15T09:14:09;10.90;;;9.60;;
4724;SDS011;2376;53.544;10.226;2022-12-15T09:16:36;11.73;;;10.20;;
4724;SDS011;2376;53.544;10.226;2022-12-15T09:19:04;15.33;;;11.27;;
4724;SDS011;2376;53.544;10.226;2022-12-15T09:21:32;15.27;;;11.43;;
4724;SDS011;2376;53.544;10.226;2022-12-15T09:24:00;12.40;;;11.13;;
4724;SDS011;2376;53.544;10.226;2022-12-15T09:26:28;14.40;;;10.77;;
4724;SDS011;2376;53.544;10.226;2022-12-15T09:28:55;14.10;;;10.80;;
4724;SDS011;2376;53.544;10.226;2022-12-15T09:31:23;14.93;;;11.70;;
4724;SDS011;2376;53.544;10.226;2022-12-15T09:33:52;16.23;;;11.57;;
4724;SDS011;2376;53.544;10.226;2022-12-15T09:36:21;14.70;;;11.83;;
4724;SDS011;2376;53.544;10.226;2022-12-15T09:38:49;16.60;;;12.40;;
4724;SDS011;2376;53.544;10.226;2022-12-15T09:41:17;12.97;;;10.70;;
4724;SDS011;2376;53.544;10.226;2022-12-15T09:43:48;17.23;;;11.70;;
4724;SDS011;2376;53.544;10.226;2022-12-15T09:46:19;15.93;;;10.83;;
4724;SDS011;2376;53.544;10.226;2022-12-15T09:48:53;13.53;;;10.70;;
4724;SDS011;2376;53.544;10.226;2022-12-15T09:51:25;20.93;;;11.50;;
4724;SDS011;2376;53.544;10.226;2022-12-15T09:53:58;14.13;;;11.37;;
4724;SDS011;2376;53.544;10.226;2022-12-15T09:56:28;13.90;;;11.30;;
4724;SDS011;2376;53.544;10.226;2022-12-15T09:58:59;16.03;;;12.37;;
4724;SDS011;2376;53.544;10.226;2022-12-15T10:01:30;13.67;;;10.97;;
4724;SDS011;2376;53.544;10.226;2022-12-15T10:04:00;15.10;;;12.87;;
4724;SDS011;2376;53.544;10.226;2022-12-15T10:06:34;19.90;;;12.53;;
4724;SDS011;2376;53.544;10.226;2022-12-15T10:09:08;20.73;;;11.70;;
4724;SDS011;2376;53.544;10.226;2022-12-15T10:11:40;12.33;;;11.07;;
4724;SDS011;2376;53.544;10.226;2022-12-15T10:14:14;18.50;;;12.20;;
4724;SDS011;2376;53.544;10.226;2022-12-15T10:16:47;23.10;;;12.73;;
4724;SDS011;2376;53.544;10.226;2022-12-15T10:19:17;13.80;;;10.43;;
4724;SDS011;2376;53.544;10.226;2022-12-15T10:21:48;14.27;;;11.47;;
4724;SDS011;2376;53.544;10.226;2022-12-15T10:24:15;13.50;;;12.10;;
4724;SDS011;2376;53.544;10.226;2022-12-15T10:26:45;16.33;;;12.13;;
4724;SDS011;2376;53.544;10.226;2022-12-15T10:29:17;11.73;;;10.50;;
4724;SDS011;2376;53.544;10.226;2022-12-15T10:31:49;15.10;;;12.70;;
4724;SDS011;2376;53.544;10.226;2022-12-15T10:34:19;16.13;;;12.70;;
4724;SDS011;2376;53.544;10.226;2022-12-15T10:36:51;14.40;;;11.60;;
4724;SDS011;2376;53.544;10.226;2022-12-15T10:39:18;15.47;;;12.20;;
4724;SDS011;2376;53.544;10.226;2022-12-15T10:41:45;18.27;;;12.30;;
4724;SDS011;2376;53.544;10.226;2022-12-15T10:44:35;15.63;;;11.30;;
4724;SDS011;2376;53.544;10.226;2022-12-15T10:47:07;13.20;;;11.83;;
4724;SDS011;2376;53.544;10.226;2022-12-15T10:49:34;16.53;;;11.70;;
4724;SDS011;2376;53.544;10.226;2022-12-15T10:52:03;13.33;;;11.07;;
4724;SDS011;2376;53.544;10.226;2022-12-15T10:54:31;12.57;;;11.00;;
4724;SDS011;2376;53.544;10.226;2022-12-15T10:57:02;13.67;;;11.20;;
4724;SDS011;2376;53.544;10.226;2022-12-15T10:59:31;14.70;;;11.83;;
4724;SDS011;2376;53.544;10.226;2022-12-15T11:02:12;14.50;;;11.50;;
4724;SDS011;2376;53.544;10.226;2022-12-15T11:04:47;14.53;;;12.40;;
4724;SDS011;2376;53.544;10.226;2022-12-15T11:07:21;14.63;;;11.60;;
4724;SDS011;2376;53.544;10.226;2022-12-15T11:09:48;13.10;;;10.73;;
4724;SDS011;2376;53.544;10.226;2022-12-15T11:12:15;13.60;;;11.10;;
4724;SDS011;2376;53.544;10.226;2022-12-15T11:15:01;13.30;;;10.20;;
4724;SDS011;2376;53.544;10.226;2022-12-15T11:17:35;13.53;;;11.40;;
4724;SDS011;2376;53.544;10.226;2022-12-15T11:20:08;16.10;;;11.40;;
4724;SDS011;2376;53.544;10.226;2022-12-15T11:22:40;15.50;;;12.80;;
4724;SDS011;2376;53.544;10.226;2022-12-15T11:25:12;14.50;;;12.33;;
4724;SDS011;2376;53.544;10.226;2022-12-15T11:27:41;14.70;;;11.63;;
4724;SDS011;2376;53.544;10.226;2022-12-15T11:30:10;13.73;;;11.70;;
4724;SDS011;2376;53.544;10.226;2022-12-15T11:32:40;14.87;;;11.37;;
4724;SDS011;2376;53.544;10.226;2022-12-15T11:35:10;16.83;;;12.00;;
4724;SDS011;2376;53.544;10.226;2022-12-15T11:37:42;14.50;;;11.43;;
4724;SDS011;2376;53.544;10.226;2022-12-15T11:40:16;16.20;;;11.73;;
4724;SDS011;2376;53.544;10.226;2022-12-15T11:42:47;14.90;;;11.73;;
4724;SDS011;2376;53.544;10.226;2022-12-15T11:45:20;15.10;;;11.90;;
4724;SDS011;2376;53.544;10.226;2022-12-15T11:47:48;12.27;;;10.90;;
4724;SDS011;2376;53.544;10.226;2022-12-15T11:50:22;13.10;;;11.40;;
4724;SDS011;2376;53.544;10.226;2022-12-15T11:52:55;11.33;;;10.10;;
4724;SDS011;2376;53.544;10.226;2022-12-15T11:55:25;15.87;;;11.97;;
4724;SDS011;2376;53.544;10.226;2022-12-15T11:58:07;14.07;;;11.43;;
4724;SDS011;2376;53.544;10.226;2022-12-15T12:00:38;14.23;;;10.57;;
4724;SDS011;2376;53.544;10.226;2022-12-15T12:03:13;13.73;;;11.80;;
4724;SDS011;2376;53.544;10.226;2022-12-15T12:05:50;14.13;;;10.90;;
4724;SDS011;2376;53.544;10.226;2022-12-15T12:08:37;12.50;;;11.23;;
4724;SDS011;2376;53.544;10.226;2022-12-15T12:11:09;16.60;;;10.53;;
4724;SDS011;2376;53.544;10.226;2022-12-15T12:13:39;11.03;;;9.83;;
4724;SDS011;2376;53.544;10.226;2022-12-15T12:16:13;17.43;;;10.20;;
4724;SDS011;2376;53.544;10.226;2022-12-15T12:18:46;14.13;;;11.13;;
4724;SDS011;2376;53.544;10.226;2022-12-15T12:21:14;11.40;;;10.20;;
4724;SDS011;2376;53.544;10.226;2022-12-15T12:23:44;12.20;;;10.93;;
4724;SDS011;2376;53.544;10.226;2022-12-15T12:26:14;12.90;;;11.47;;
4724;SDS011;2376;53.544;10.226;2022-12-15T12:28:44;12.30;;;10.37;;
4724;SDS011;2376;53.544;10.226;2022-12-15T12:31:16;10.53;;;9.40;;
4724;SDS011;2376;53.544;10.226;2022-12-15T12:33:45;13.43;;;9.50;;
4724;SDS011;2376;53.544;10.226;2022-12-15T12:36:14;12.53;;;11.27;;
4724;SDS011;2376;53.544;10.226;2022-12-15T12:38:44;13.83;;;10.80;;
4724;SDS011;2376;53.544;10.226;2022-12-15T12:41:14;11.20;;;10.20;;
4724;SDS011;2376;53.544;10.226;2022-12-15T12:43:43;13.67;;;12.20;;
4724;SDS011;2376;53.544;10.226;2022-12-15T12:46:13;12.00;;;10.03;;
4724;SDS011;2376;53.544;10.226;2022-12-15T12:48:43;14.97;;;12.73;;
4724;SDS011;2376;53.544;10.226;2022-12-15T12:51:15;14.20;;;10.27;;
4724;SDS011;2376;53.544;10.226;2022-12-15T12:53:46;12.70;;;10.87;;
4724;SDS011;2376;53.544;10.226;2022-12-15T12:56:27;19.30;;;11.00;;
4724;SDS011;2376;53.544;10.226;2022-12-15T12:58:54;11.80;;;10.70;;
4724;SDS011;2376;53.544;10.226;2022-12-15T13:01:24;11.00;;;9.90;;
4724;SDS011;2376;53.544;10.226;2022-12-15T13:04:03;13.13;;;10.30;;
4724;SDS011;2376;53.544;10.226;2022-12-15T13:09:35;16.60;;;10.20;;
4724;SDS011;2376;53.544;10.226;2022-12-15T13:12:03;14.27;;;11.00;;
4724;SDS011;2376;53.544;10.226;2022-12-15T13:14:51;13.30;;;9.87;;
4724;SDS011;2376;53.544;10.226;2022-12-15T13:17:25;13.53;;;10.73;;
4724;SDS011;2376;53.544;10.226;2022-12-15T13:20:18;10.23;;;9.17;;
4724;SDS011;2376;53.544;10.226;2022-12-15T13:22:49;12.03;;;10.30;;
4724;SDS011;2376;53.544;10.226;2022-12-15T13:25:38;14.97;;;10.07;;
4724;SDS011;2376;53.544;10.226;2022-12-15T13:28:17;11.33;;;9.60;;
4724;SDS011;2376;53.544;10.226;2022-12-15T13:33:58;12.03;;;9.37;;
4724;SDS011;2376;53.544;10.226;2022-12-15T13:36:48;15.17;;;8.70;;
4724;SDS011;2376;53.544;10.226;2022-12-15T13:39:34;10.30;;;8.30;;
4724;SDS011;2376;53.544;10.226;2022-12-15T13:42:30;9.77;;;8.17;;
4724;SDS011;2376;53.544;10.226;2022-12-15T13:47:58;7.97;;;7.17;;
4724;SDS011;2376;53.544;10.226;2022-12-15T13:50:30;10.37;;;9.03;;
4724;SDS011;2376;53.544;10.226;2022-12-15T13:53:05;9.60;;;8.60;;
4724;SDS011;2376;53.544;10.226;2022-12-15T13:55:39;9.57;;;7.97;;
4724;SDS011;2376;53.544;10.226;2022-12-15T13:58:18;11.47;;;8.30;;
4724;SDS011;2376;53.544;10.226;2022-12-15T14:00:47;13.17;;;7.43;;
4724;SDS011;2376;53.544;10.226;2022-12-15T14:03:16;11.27;;;8.13;;
4724;SDS011;2376;53.544;10.226;2022-12-15T14:05:46;10.80;;;8.47;;
4724;SDS011;2376;53.544;10.226;2022-12-15T14:08:15;8.73;;;7.87;;
4724;SDS011;2376;53.544;10.226;2022-12-15T14:10:43;9.73;;;8.40;;
4724;SDS011;2376;53.544;10.226;2022-12-15T14:13:15;10.70;;;7.80;;
4724;SDS011;2376;53.544;10.226;2022-12-15T14:15:47;9.20;;;7.77;;
4724;SDS011;2376;53.544;10.226;2022-12-15T14:18:21;11.23;;;8.20;;
4724;SDS011;2376;53.544;10.226;2022-12-15T14:20:50;8.50;;;7.67;;
4724;SDS011;2376;53.544;10.226;2022-12-15T14:23:18;13.50;;;9.50;;
4724;SDS011;2376;53.544;10.226;2022-12-15T14:25:52;10.47;;;8.70;;
4724;SDS011;2376;53.544;10.226;2022-12-15T14:28:24;12.70;;;8.27;;
4724;SDS011;2376;53.544;10.226;2022-12-15T14:30:55;8.40;;;7.37;;
4724;SDS011;2376;53.544;10.226;2022-12-15T14:33:24;8.77;;;7.17;;
4724;SDS011;2376;53.544;10.226;2022-12-15T14:35:52;12.50;;;8.10;;
4724;SDS011;2376;53.544;10.226;2022-12-15T14:38:23;8.37;;;7.37;;
4724;SDS011;2376;53.544;10.226;2022-12-15T14:40:56;11.27;;;8.43;;
4724;SDS011;2376;53.544;10.226;2022-12-15T14:43:27;10.50;;;8.13;;
4724;SDS011;2376;53.544;10.226;2022-12-15T14:46:04;14.40;;;8.77;;
4724;SDS011;2376;53.544;10.226;2022-12-15T14:48:33;11.13;;;8.73;;
4724;SDS011;2376;53.544;10.226;2022-12-15T14:51:02;8.80;;;7.67;;
4724;SDS011;2376;53.544;10.226;2022-12-15T14:53:31;11.93;;;8.70;;
4724;SDS011;2376;53.544;10.226;2022-12-15T14:56:13;14.03;;;9.37;;
4724;SDS011;2376;53.544;10.226;2022-12-15T14:58:54;11.63;;;9.47;;
4724;SDS011;2376;53.544;10.226;2022-12-15T15:01:25;12.80;;;8.90;;
4724;SDS011;2376;53.544;10.226;2022-12-15T15:03:57;8.77;;;7.90;;
4724;SDS011;2376;53.544;10.226;2022-12-15T15:06:29;10.67;;;9.17;;
4724;SDS011;2376;53.544;10.226;2022-12-15T15:11:49;9.90;;;8.23;;
4724;SDS011;2376;53.544;10.226;2022-12-15T15:14:20;11.17;;;8.20;;
4724;SDS011;2376;53.544;10.226;2022-12-15T15:16:57;8.90;;;7.90;;
4724;SDS011;2376;53.544;10.226;2022-12-15T15:19:30;11.67;;;8.83;;
4724;SDS011;2376;53.544;10.226;2022-12-15T15:21:58;9.07;;;8.17;;
4724;SDS011;2376;53.544;10.226;2022-12-15T15:24:28;11.23;;;8.13;;
4724;SDS011;2376;53.544;10.226;2022-12-15T15:27:22;7.90;;;7.20;;
4724;SDS011;2376;53.544;10.226;2022-12-15T15:29:52;8.43;;;7.43;;
4724;SDS011;2376;53.544;10.226;2022-12-15T15:32:31;11.10;;;7.70;;